DLH457 KLAX-EDDF
Flight info
| Callsign | DLH457 |
|---|---|
| Flight time | N/A |
| Altitude | 35000 |
| Route | OSHNN1 BEALE Q842 WINEN DCT EHK DCT OCS DCT CZI DCT RECAP DCT DIK DCT KOBID DCT 56N090W 61N080W/N0482F370 6330N07000W DCT MUSVA/M084F370 DCT CLAVY DCT 64N050W 6330N04000W 6230N03000W 6030N02000W DCT ERAKA/N0486F370 DCT ETSOM/N0488F390 DCT ERSON DCT ROBEM DCT ERLOT DCT BAZNA DCT ROKAN DCT TOPPA DCT SOGPO DCT DIXAT DIXAT1D |
| Aircraft | A388/J-SADE2E3FGHIJ3J4J5M1RWXY/LB1D1 |
Departure
| Time | 2026-04-26 06:54 |
|---|---|
| Airport | Los Angeles International Airport (KLAX) |
Arrival
| Time | N/A |
|---|---|
| Airport | Frankfurt Main Airport (EDDF) |
| Time | Latitude | Longitude | Altitude | Speed | Heading |
|---|---|---|---|---|---|
| 2026-04-26 06:23 | 33.94099 | -118.41091 | 99 ft | 0 kts | 83° |
| 2026-04-26 06:41 | 33.94097 | -118.41105 | 99 ft | 3 kts | 83° |
| 2026-04-26 06:41 | 33.94095 | -118.41129 | 99 ft | 3 kts | 84° |
| 2026-04-26 06:42 | 33.94093 | -118.41153 | 99 ft | 3 kts | 84° |
| 2026-04-26 06:42 | 33.94091 | -118.41173 | 100 ft | 3 kts | 73° |
| 2026-04-26 06:42 | 33.94083 | -118.41191 | 101 ft | 3 kts | 28° |
| 2026-04-26 06:42 | 33.94066 | -118.41196 | 99 ft | 3 kts | 358° |
| 2026-04-26 06:43 | 33.94050 | -118.41195 | 99 ft | 1 kts | 0° |
| 2026-04-26 06:43 | 33.94049 | -118.41195 | 99 ft | 1 kts | 0° |
| 2026-04-26 06:46 | 33.94072 | -118.41195 | 102 ft | 6 kts | 0° |
| 2026-04-26 06:46 | 33.94135 | -118.41201 | 102 ft | 12 kts | 353° |
| 2026-04-26 06:47 | 33.94224 | -118.41214 | 101 ft | 13 kts | 352° |
| 2026-04-26 06:47 | 33.94318 | -118.41229 | 102 ft | 16 kts | 353° |
| 2026-04-26 06:47 | 33.94436 | -118.41246 | 100 ft | 18 kts | 353° |
| 2026-04-26 06:47 | 33.94565 | -118.41264 | 101 ft | 19 kts | 353° |
| 2026-04-26 06:48 | 33.94680 | -118.41282 | 102 ft | 11 kts | 352° |
| 2026-04-26 06:48 | 33.94752 | -118.41293 | 100 ft | 8 kts | 358° |
| 2026-04-26 06:48 | 33.94791 | -118.41263 | 101 ft | 8 kts | 66° |
| 2026-04-26 06:48 | 33.94804 | -118.41173 | 102 ft | 14 kts | 83° |
| 2026-04-26 06:49 | 33.94817 | -118.41045 | 99 ft | 16 kts | 83° |
| 2026-04-26 06:49 | 33.94832 | -118.40907 | 101 ft | 17 kts | 83° |
| 2026-04-26 06:49 | 33.94848 | -118.40750 | 101 ft | 21 kts | 83° |
| 2026-04-26 06:49 | 33.94866 | -118.40576 | 100 ft | 21 kts | 83° |
| 2026-04-26 06:50 | 33.94883 | -118.40402 | 99 ft | 21 kts | 83° |
| 2026-04-26 06:50 | 33.94901 | -118.40227 | 100 ft | 21 kts | 83° |
| 2026-04-26 06:50 | 33.94919 | -118.40057 | 100 ft | 16 kts | 83° |
| 2026-04-26 06:50 | 33.94929 | -118.39964 | 99 ft | 7 kts | 73° |
| 2026-04-26 06:51 | 33.94935 | -118.39947 | 99 ft | 2 kts | 57° |
| 2026-04-26 06:51 | 33.94936 | -118.39945 | 99 ft | 0 kts | 56° |
| 2026-04-26 06:51 | 33.94936 | -118.39944 | 99 ft | 0 kts | 55° |
| 2026-04-26 06:52 | 33.94963 | -118.39917 | 101 ft | 8 kts | 23° |
| 2026-04-26 06:52 | 33.95020 | -118.39917 | 99 ft | 7 kts | 329° |
| 2026-04-26 06:52 | 33.95036 | -118.39951 | 99 ft | 6 kts | 279° |
| 2026-04-26 06:52 | 33.95035 | -118.40020 | 102 ft | 13 kts | 263° |
| 2026-04-26 06:53 | 33.95014 | -118.40225 | 100 ft | 46 kts | 261° |
| 2026-04-26 06:53 | 33.94940 | -118.40935 | 99 ft | 120 kts | 262° |
| 2026-04-26 06:53 | 33.94816 | -118.42137 | 101 ft | 169 kts | 263° |
| 2026-04-26 06:53 | 33.94667 | -118.43635 | 375 ft | 181 kts | 263° |
| 2026-04-26 06:54 | 33.94543 | -118.45127 | 991 ft | 178 kts | 263° |
| 2026-04-26 06:54 | 33.94411 | -118.46599 | 1595 ft | 176 kts | 261° |
| 2026-04-26 06:54 | 33.94253 | -118.48069 | 2052 ft | 179 kts | 262° |
| 2026-04-26 06:54 | 33.94120 | -118.49604 | 2277 ft | 189 kts | 264° |
| 2026-04-26 06:55 | 33.94050 | -118.51229 | 2401 ft | 201 kts | 265° |
| 2026-04-26 06:55 | 33.93882 | -118.52944 | 2481 ft | 212 kts | 251° |
| 2026-04-26 06:55 | 33.93017 | -118.54426 | 2677 ft | 232 kts | 218° |
| 2026-04-26 06:55 | 33.91473 | -118.55204 | 2967 ft | 253 kts | 188° |
| 2026-04-26 06:56 | 33.89680 | -118.55154 | 3611 ft | 258 kts | 176° |
| 2026-04-26 06:56 | 33.87900 | -118.54850 | 4249 ft | 262 kts | 173° |
| 2026-04-26 06:56 | 33.86086 | -118.54507 | 4907 ft | 265 kts | 173° |
| 2026-04-26 06:56 | 33.84255 | -118.54188 | 5565 ft | 268 kts | 174° |
| 2026-04-26 06:57 | 33.82391 | -118.53893 | 6206 ft | 271 kts | 174° |
| 2026-04-26 06:57 | 33.80512 | -118.53615 | 6849 ft | 273 kts | 175° |
| 2026-04-26 06:57 | 33.78633 | -118.53345 | 7492 ft | 275 kts | 175° |
| 2026-04-26 06:57 | 33.76717 | -118.53073 | 8137 ft | 278 kts | 175° |
| 2026-04-26 06:58 | 33.74785 | -118.52801 | 8769 ft | 281 kts | 175° |
| 2026-04-26 06:58 | 33.72835 | -118.52526 | 9402 ft | 283 kts | 175° |
| 2026-04-26 06:58 | 33.70919 | -118.51976 | 10013 ft | 289 kts | 156° |
| 2026-04-26 06:58 | 33.69307 | -118.50529 | 10443 ft | 306 kts | 135° |
| 2026-04-26 06:59 | 33.68163 | -118.48234 | 10614 ft | 329 kts | 115° |
| 2026-04-26 06:59 | 33.67433 | -118.45599 | 10770 ft | 347 kts | 110° |
| 2026-04-26 06:59 | 33.66754 | -118.42767 | 11081 ft | 356 kts | 110° |
| 2026-04-26 06:59 | 33.66030 | -118.39915 | 11594 ft | 359 kts | 112° |
| 2026-04-26 07:00 | 33.65265 | -118.37112 | 12093 ft | 362 kts | 112° |
| 2026-04-26 07:00 | 33.64656 | -118.34141 | 12593 ft | 370 kts | 104° |
| 2026-04-26 07:00 | 33.64426 | -118.31040 | 13097 ft | 377 kts | 95° |
| 2026-04-26 07:00 | 33.64453 | -118.27860 | 13551 ft | 382 kts | 94° |
| 2026-04-26 07:01 | 33.64466 | -118.24658 | 14033 ft | 385 kts | 94° |
| 2026-04-26 07:01 | 33.64499 | -118.21441 | 14471 ft | 391 kts | 89° |
| 2026-04-26 07:01 | 33.65154 | -118.18231 | 14950 ft | 401 kts | 69° |
| 2026-04-26 07:01 | 33.66622 | -118.15339 | 15356 ft | 410 kts | 50° |
| 2026-04-26 07:02 | 33.68751 | -118.13066 | 15784 ft | 413 kts | 33° |
| 2026-04-26 07:02 | 33.71195 | -118.11212 | 16182 ft | 416 kts | 30° |
| 2026-04-26 07:02 | 33.73660 | -118.09375 | 16619 ft | 419 kts | 31° |
| 2026-04-26 07:02 | 33.76099 | -118.07421 | 17057 ft | 422 kts | 33° |
| 2026-04-26 07:03 | 33.78467 | -118.05404 | 17441 ft | 426 kts | 35° |
| 2026-04-26 07:03 | 33.80867 | -118.03282 | 17807 ft | 430 kts | 36° |
| 2026-04-26 07:03 | 33.83284 | -118.01114 | 18181 ft | 433 kts | 36° |
| 2026-04-26 07:03 | 33.85697 | -117.98938 | 18598 ft | 435 kts | 36° |
| 2026-04-26 07:04 | 33.88122 | -117.96750 | 18943 ft | 439 kts | 36° |
| 2026-04-26 07:04 | 33.89753 | -117.95279 | 19186 ft | 441 kts | 36° |
| 2026-04-26 07:04 | 33.92218 | -117.93052 | 19538 ft | 444 kts | 36° |
| 2026-04-26 07:04 | 33.94692 | -117.90794 | 19906 ft | 447 kts | 36° |
| 2026-04-26 07:05 | 33.97176 | -117.88518 | 20251 ft | 450 kts | 36° |
| 2026-04-26 07:05 | 34.00520 | -117.85453 | 20689 ft | 454 kts | 36° |
| 2026-04-26 07:05 | 34.02191 | -117.83920 | 20913 ft | 456 kts | 36° |
| 2026-04-26 07:05 | 34.04724 | -117.81599 | 21225 ft | 459 kts | 36° |
| 2026-04-26 07:06 | 34.08078 | -117.78465 | 21656 ft | 463 kts | 40° |
| 2026-04-26 07:06 | 34.09639 | -117.76660 | 21873 ft | 465 kts | 47° |
| 2026-04-26 07:06 | 34.11715 | -117.73659 | 22176 ft | 467 kts | 52° |
| 2026-04-26 07:06 | 34.13741 | -117.70624 | 22510 ft | 469 kts | 52° |
| 2026-04-26 07:07 | 34.15812 | -117.67551 | 22812 ft | 472 kts | 52° |
| 2026-04-26 07:07 | 34.17889 | -117.64474 | 23133 ft | 475 kts | 51° |
| 2026-04-26 07:07 | 34.19985 | -117.61365 | 23421 ft | 477 kts | 51° |
| 2026-04-26 07:07 | 34.22087 | -117.58243 | 23793 ft | 479 kts | 51° |
| 2026-04-26 07:08 | 34.24202 | -117.55097 | 24026 ft | 483 kts | 51° |
| 2026-04-26 07:08 | 34.26315 | -117.51948 | 24318 ft | 484 kts | 51° |
| 2026-04-26 07:08 | 34.28445 | -117.48774 | 24591 ft | 486 kts | 52° |
| 2026-04-26 07:08 | 34.30582 | -117.45585 | 24893 ft | 488 kts | 52° |
| 2026-04-26 07:09 | 34.32725 | -117.42383 | 25201 ft | 490 kts | 52° |
| 2026-04-26 07:09 | 34.34875 | -117.39168 | 25518 ft | 492 kts | 52° |
| 2026-04-26 07:09 | 34.37030 | -117.35942 | 25819 ft | 495 kts | 51° |
| 2026-04-26 07:09 | 34.39202 | -117.32689 | 26132 ft | 497 kts | 52° |
| 2026-04-26 07:10 | 34.45762 | -117.22847 | 27088 ft | 504 kts | 52° |
| 2026-04-26 07:11 | 34.50154 | -117.16240 | 27732 ft | 509 kts | 52° |
| 2026-04-26 07:11 | 34.52377 | -117.12892 | 28074 ft | 511 kts | 52° |
| 2026-04-26 07:11 | 34.54609 | -117.09526 | 28377 ft | 514 kts | 51° |
| 2026-04-26 07:11 | 34.56893 | -117.06152 | 28686 ft | 517 kts | 50° |
| 2026-04-26 07:12 | 34.59192 | -117.02823 | 29034 ft | 518 kts | 50° |
| 2026-04-26 07:12 | 34.61519 | -116.99460 | 29334 ft | 521 kts | 50° |
| 2026-04-26 07:12 | 34.63853 | -116.96076 | 29644 ft | 524 kts | 50° |
| 2026-04-26 07:12 | 34.66196 | -116.92665 | 29947 ft | 526 kts | 50° |
| 2026-04-26 07:13 | 34.68542 | -116.89241 | 30265 ft | 528 kts | 51° |
| 2026-04-26 07:13 | 34.70873 | -116.85832 | 30515 ft | 532 kts | 50° |
| 2026-04-26 07:13 | 34.73243 | -116.82362 | 30830 ft | 534 kts | 50° |
| 2026-04-26 07:13 | 34.75621 | -116.78877 | 31104 ft | 537 kts | 50° |
| 2026-04-26 07:14 | 34.78018 | -116.75361 | 31342 ft | 540 kts | 50° |
| 2026-04-26 07:14 | 34.80418 | -116.71837 | 31595 ft | 543 kts | 50° |
| 2026-04-26 07:14 | 34.82832 | -116.68290 | 31906 ft | 544 kts | 50° |
| 2026-04-26 07:14 | 34.85254 | -116.64726 | 32122 ft | 548 kts | 50° |
| 2026-04-26 07:15 | 34.87527 | -116.61470 | 32369 ft | 549 kts | 48° |
| 2026-04-26 07:15 | 34.90117 | -116.58020 | 32607 ft | 552 kts | 46° |
| 2026-04-26 07:15 | 34.92743 | -116.54590 | 32921 ft | 554 kts | 46° |
| 2026-04-26 07:15 | 34.95358 | -116.51156 | 33138 ft | 557 kts | 47° |
| 2026-04-26 07:16 | 34.97989 | -116.47668 | 33382 ft | 559 kts | 47° |